Hanover Park, Illinois
Current Conditions -  °F | °C
As of 10:52 AM on Saturday 20 Dec 2014 (Local Time) from KDPA Reporting Station
Haze Haze  
Wind Chill: 24°   Ceiling: 6000
Heat Index: 30°   Visibility: 6mi
Dew Point: 24°   Wind: 6mph
Humidity: 79%   Direction: 160°SSE
Pressure: 30.27"   Gusts: NA
Location:  41.99°N, 88.16°W
Report Text: KDPA 201652Z 16005KT 6SM HZ OVC060 M01/M04 A3027 RMK AO2 SLP259 T10111044
Loading
Personal Weather Stations






























Interactive Weather Map New forecast layout! Learn more

10-Day Weather Forecast

Advertisements
Track Severe Weather on mobile